KHBV

Jim Hogg County Airport

Hebbronville, Texas, USA
METAR KHBV 261315Z AUTO 00000KT 10SM CLR 24/22 A2988 RMK AO2 T02380218
Observed Flight Rules
May-26 @ 13:15 UTC (21 minutes ago) Visual Flight Rules
Visibility Clouds
10 miles
  • Clear skies
Temperatures Readings
Current 24°C / 75°F
Dewpoint 22°C / 72°F
Humidity 89%
Altimeter 29.88" Hg
Pressure 1012 hPa
Elevation 202
METAR KHBV 261315Z AUTO 00000KT 10SM CLR 24/22 A2988 RMK AO2 T02380218
Observed Flight Rules
May-26 @ 13:15 UTC
(21 minutes ago)
VFR
Clouds
  • Clear skies
Temperature Dewpoint
24°C / 75°F 22°C / 72°F
Humidity Altimeter Pressure
89% 29.88" Hg 1012 hPa